createdAt,value
2018-01-20T00:06:27.777Z,0
2018-01-20T00:16:19.943Z,0
2018-01-20T00:26:19.934Z,0
2018-01-20T00:36:19.885Z,0
2018-01-20T00:46:20.013Z,0
2018-01-20T00:56:19.951Z,0
2018-01-20T01:06:19.955Z,0
2018-01-20T01:16:20.043Z,0
2018-01-20T01:26:19.952Z,0
2018-01-20T01:36:20.092Z,0
2018-01-20T01:46:20.042Z,0
2018-01-20T01:56:19.970Z,0
2018-01-20T02:06:19.957Z,0
2018-01-20T02:16:20.046Z,0
2018-01-20T02:26:19.973Z,0
2018-01-20T02:36:20.059Z,0
2018-01-20T02:46:20.040Z,0
2018-01-20T02:56:20.079Z,0
2018-01-20T03:06:20.022Z,0
2018-01-20T03:16:20.020Z,0
2018-01-20T03:26:20.081Z,0
2018-01-20T03:36:20.018Z,0
2018-01-20T03:46:20.071Z,0
2018-01-20T03:56:20.037Z,0
2018-01-20T04:06:20.129Z,0
2018-01-20T04:16:20.084Z,0
2018-01-20T04:26:20.110Z,0
2018-01-20T04:36:20.079Z,0
2018-01-20T04:46:20.132Z,0
2018-01-20T04:56:20.092Z,0
2018-01-20T05:06:20.217Z,0
2018-01-20T05:16:20.106Z,0
2018-01-20T05:26:20.117Z,0
2018-01-20T05:36:20.127Z,0
2018-01-20T05:46:20.184Z,0
2018-01-20T05:56:20.179Z,0
2018-01-20T06:06:20.159Z,4
2018-01-20T06:16:20.255Z,4
2018-01-20T06:26:20.181Z,0
2018-01-20T06:36:20.269Z,0
2018-01-20T06:46:20.180Z,0
2018-01-20T06:56:20.266Z,0
2018-01-20T07:06:20.205Z,8
2018-01-20T07:16:20.186Z,32
2018-01-20T07:26:20.265Z,72
2018-01-20T07:36:20.268Z,100
2018-01-20T07:46:20.277Z,236
2018-01-20T07:56:20.278Z,236
2018-01-20T08:06:20.287Z,548
2018-01-20T08:16:20.235Z,452
2018-01-20T08:26:20.332Z,1348
2018-01-20T08:36:20.326Z,1060
2018-01-20T08:46:20.356Z,1752
2018-01-20T08:56:20.326Z,3020
2018-01-20T09:06:20.256Z,3604
2018-01-20T09:16:20.316Z,1580
2018-01-20T09:26:20.332Z,3500
2018-01-20T09:36:20.394Z,3680
2018-01-20T09:46:20.323Z,2964
2018-01-20T09:56:20.307Z,4288
2018-01-20T10:06:20.336Z,3792
2018-01-20T10:16:20.460Z,4064
2018-01-20T10:26:20.346Z,6136
2018-01-20T10:36:20.474Z,6804
2018-01-20T10:46:20.485Z,6892
2018-01-20T10:56:20.425Z,6304
2018-01-20T11:06:20.364Z,7128
2018-01-20T11:16:20.393Z,6612
2018-01-20T11:26:20.637Z,7600
2018-01-20T11:36:20.388Z,6336
2018-01-20T11:46:20.471Z,4300
2018-01-20T11:56:20.460Z,5260
2018-01-20T12:06:20.503Z,5164
2018-01-20T12:16:20.652Z,2564
2018-01-20T12:26:20.506Z,3860
2018-01-20T12:36:20.456Z,4412
2018-01-20T12:46:20.565Z,2440
2018-01-20T12:56:20.476Z,4124
2018-01-20T13:06:20.558Z,3516
2018-01-20T13:16:20.536Z,3656
2018-01-20T13:26:20.469Z,2436
2018-01-20T13:36:48.834Z,4968
2018-01-20T13:46:20.496Z,1752
2018-01-20T13:56:20.566Z,3080
2018-01-20T14:06:20.501Z,3424
2018-01-20T14:16:20.623Z,2188
2018-01-20T14:26:20.592Z,1648
2018-01-20T14:36:20.670Z,1312
2018-01-20T14:46:20.592Z,832
2018-01-20T14:56:20.628Z,1344
2018-01-20T15:06:20.663Z,780
2018-01-20T15:16:20.642Z,460
2018-01-20T15:26:20.547Z,440
2018-01-20T15:36:20.679Z,280
2018-01-20T15:46:20.631Z,196
2018-01-20T15:56:20.632Z,76
2018-01-20T16:06:20.660Z,44
2018-01-20T16:16:20.617Z,12
2018-01-20T16:26:20.649Z,4
2018-01-20T16:36:20.658Z,4
2018-01-20T16:46:20.751Z,4
2018-01-20T16:56:20.646Z,4
2018-01-20T17:06:20.743Z,4
2018-01-20T17:16:20.730Z,4
2018-01-20T17:26:20.809Z,4
2018-01-20T17:36:21.962Z,4
2018-01-20T17:46:20.818Z,4
2018-01-20T17:56:20.772Z,4
2018-01-20T18:06:20.694Z,4
2018-01-20T18:16:20.902Z,4
2018-01-20T18:26:20.722Z,0
2018-01-20T18:36:20.829Z,4
2018-01-20T18:46:20.752Z,0
2018-01-20T18:56:20.897Z,4
2018-01-20T19:06:20.832Z,4
2018-01-20T19:16:20.782Z,4
2018-01-20T19:26:20.948Z,4
2018-01-20T19:36:20.813Z,4
2018-01-20T19:46:20.861Z,4
2018-01-20T19:56:20.831Z,4
2018-01-20T20:06:20.793Z,4
2018-01-20T20:16:20.851Z,4
2018-01-20T20:26:20.768Z,4
2018-01-20T20:36:20.847Z,4
2018-01-20T20:46:20.831Z,4
2018-01-20T20:56:20.911Z,0
2018-01-20T21:06:20.882Z,0
2018-01-20T21:16:30.872Z,4
2018-01-20T21:26:28.621Z,4
2018-01-20T21:36:20.920Z,4
2018-01-20T21:46:20.965Z,4
2018-01-20T21:56:20.959Z,4
2018-01-20T22:06:20.973Z,4
2018-01-20T22:16:20.964Z,4
2018-01-20T22:26:21.026Z,4
2018-01-20T22:36:21.041Z,4
2018-01-20T22:46:20.939Z,4
2018-01-20T22:56:21.004Z,4
2018-01-20T23:06:20.957Z,4
2018-01-20T23:16:21.048Z,4
2018-01-20T23:26:20.943Z,4
2018-01-20T23:36:21.085Z,4
2018-01-20T23:46:20.983Z,4
2018-01-20T23:56:21.059Z,4
